Coastal Nomad — WDC6439 — position and weather

sailwx.info

Track history (hours):
 
Tides and Currents Weather Stations Pressure Air Temp Water Temp Dewpoint Dewpoint Depression Visibility Wind Speed Wind Dir Waves Ship Positions

Coastal Nomad

Owner: Coastal Transportation, Inc., Seattle, WA. More information available from US FCC via Universal Licensing System and Coast Guard Vessel Documentation Center.

Last reported at 2017-Jan-23 20:33 UTC. Time now 2017-Jan-23 21:01 UTC.
Position N 47°39' W 122°23'.

Length 74 m; draft 4 m.

Type: Cargo ship. MMSI: 303683000.

Date/timePositionNaut miles runAvg speedWind from/ knotsBaromVisibWave heightAir tempDewpointWater temp
2017-Jan-23 20:33N 47°39' W 122°23'0 0.0
2017-Jan-23 19:33N 47°39' W 122°23'0 0.0
2017-Jan-23 18:33N 47°39' W 122°23'0 0.0
2017-Jan-23 17:33N 47°39' W 122°23'0 0.0
2017-Jan-22 11:34N 47°39' W 122°23'0 0.0
2017-Jan-22 10:33N 47°39' W 122°23'4 3.8
2017-Jan-22 09:33N 47°43' W 122°26'1211.8
2017-Jan-22 08:33N 47°54' W 122°30'1211.8
2017-Jan-22 07:33N 48°04' W 122°39'1212.3
2017-Jan-22 06:33N 48°15' W 122°48'1211.6
2017-Jan-22 05:33N 48°26' W 122°45'1211.6
2017-Jan-22 04:33N 48°38' W 122°44'1111.0
2017-Jan-22 03:33N 48°47' W 122°53'1212.2
2017-Jan-22 02:34N 48°54' W 123°08'1312.6
2017-Jan-22 01:34N 49°03' W 123°22'1212.0
2017-Jan-22 00:33N 49°11' W 123°36'1211.6
2017-Jan-21 23:34N 49°18' W 123°50'1212.0
2017-Jan-21 22:34N 49°26' W 124°04'1211.9
2017-Jan-21 21:34N 49°33' W 124°18'1211.9
2017-Jan-21 20:34N 49°39' W 124°34'1111.3
2017-Jan-21 19:33N 49°46' W 124°48'1111.5
2017-Jan-21 18:34N 49°54' W 125°01'1212.3
2017-Jan-21 17:34N 50°03' W 125°14'1212.2
2017-Jan-21 16:33N 50°14' W 125°23'1110.6
2017-Jan-21 15:29N 50°22' W 125°34'4310.7
2017-Jan-21 11:26N 50°32' W 126°41'910.3
2017-Jan-21 10:33N 50°39' W 126°49'1211.5
2017-Jan-21 09:29N 50°45' W 127°07'1111.6
2017-Jan-21 08:33N 50°49' W 127°23'1111.5
2017-Jan-21 07:33N 50°54' W 127°38'1312.1
2017-Jan-21 06:30N 51°02' W 127°54'41211.9
2017-Jan-19 20:00N 55°48' W 136°12'27311.4 270 / 18982.0
2017-Jan-18 20:00N 55°18' W 144°12'23911.4 360 / 25972.2 5.4 1.1
2017-Jan-17 23:00N 55°36' W 151°12'   030 / 28975.0 1.1 -2.2
Track history (hours):
 
Tides and Currents Weather Stations Pressure Air Temp Water Temp Dewpoint Dewpoint Depression Visibility Wind Speed Wind Dir Waves Ship Positions

Coastal Nomad

Owner: Coastal Transportation, Inc., Seattle, WA. More information available from US FCC via Universal Licensing System and Coast Guard Vessel Documentation Center.

Last reported at 2017-Jan-23 20:33 UTC. Time now 2017-Jan-23 21:01 UTC.
Position N 47°39' W 122°23'.

Length 74 m; draft 4 m.

Type: Cargo ship. MMSI: 303683000.

Date/timePositionNaut miles runAvg speedWind from/ knotsBaromVisibWave heightAir tempDewpointWater temp
2017-Jan-23 20:33N 47°39' W 122°23'0 0.0
2017-Jan-23 19:33N 47°39' W 122°23'0 0.0
2017-Jan-23 18:33N 47°39' W 122°23'0 0.0
2017-Jan-23 17:33N 47°39' W 122°23'0 0.0
2017-Jan-22 11:34N 47°39' W 122°23'0 0.0
2017-Jan-22 10:33N 47°39' W 122°23'4 3.8
2017-Jan-22 09:33N 47°43' W 122°26'1211.8
2017-Jan-22 08:33N 47°54' W 122°30'1211.8
2017-Jan-22 07:33N 48°04' W 122°39'1212.3
2017-Jan-22 06:33N 48°15' W 122°48'1211.6
2017-Jan-22 05:33N 48°26' W 122°45'1211.6
2017-Jan-22 04:33N 48°38' W 122°44'1111.0
2017-Jan-22 03:33N 48°47' W 122°53'1212.2
2017-Jan-22 02:34N 48°54' W 123°08'1312.6
2017-Jan-22 01:34N 49°03' W 123°22'1212.0
2017-Jan-22 00:33N 49°11' W 123°36'1211.6
2017-Jan-21 23:34N 49°18' W 123°50'1212.0
2017-Jan-21 22:34N 49°26' W 124°04'1211.9
2017-Jan-21 21:34N 49°33' W 124°18'1211.9
2017-Jan-21 20:34N 49°39' W 124°34'1111.3
2017-Jan-21 19:33N 49°46' W 124°48'1111.5
2017-Jan-21 18:34N 49°54' W 125°01'1212.3
2017-Jan-21 17:34N 50°03' W 125°14'1212.2
2017-Jan-21 16:33N 50°14' W 125°23'1110.6
2017-Jan-21 15:29N 50°22' W 125°34'4310.7
2017-Jan-21 11:26N 50°32' W 126°41'910.3
2017-Jan-21 10:33N 50°39' W 126°49'1211.5
2017-Jan-21 09:29N 50°45' W 127°07'1111.6
2017-Jan-21 08:33N 50°49' W 127°23'1111.5
2017-Jan-21 07:33N 50°54' W 127°38'1312.1
2017-Jan-21 06:30N 51°02' W 127°54'41211.9
2017-Jan-19 20:00N 55°48' W 136°12'27311.4 270 / 18982.0
2017-Jan-18 20:00N 55°18' W 144°12'23911.4 360 / 25972.2 5.4 1.1
2017-Jan-17 23:00N 55°36' W 151°12'   030 / 28975.0 1.1 -2.2

Dump ship's entire track history